Time;durP1;ratioP1;P1;durP2;ratioP2;P2;SDS_P1;SDS_P2;PMS_P1;PMS_P2;Temp;Humidity;BMP_temperature;BMP_pressure;BME280_temperature;BME280_humidity;BME280_pressure;Samples;Min_cycle;Max_cycle;Signal;HPM_P1;HPM_P2
2022/06/19 00:00:34;;;;;;;;;;;;;;;22.43;44.66;100843.84;1037698;28;708;-72
2022/06/19 00:01:24;;;;;;;;;;;;;;;22.38;45.30;100846.28;1041520;28;725;-72
2022/06/19 00:02:15;;;;;;;;;;;;;;;22.41;44.77;100850.47;1040796;28;700;-72
2022/06/19 00:03:06;;;;;;;;;;;;;;;22.41;45.20;100845.03;1037784;28;673;-72
2022/06/19 00:03:56;;;;;;;;;;;;;;;22.39;44.85;100839.78;1036865;28;654;-71
2022/06/19 00:04:47;;;;;;;;;;;;;;;22.44;45.62;100848.25;1037689;28;709;-72
2022/06/19 00:05:37;;;;;;;;;;;;;;;22.42;45.26;100850.31;1041707;28;614;-72
2022/06/19 00:06:28;;;;;;;;;;;;;;;22.45;45.14;100849.94;1041623;28;677;-72
2022/06/19 00:07:18;;;;;;;;;;;;;;;22.46;45.37;100837.22;1036898;28;698;-72
2022/06/19 00:08:08;;;;;;;;;;;;;;;22.48;45.65;100841.47;1042141;28;669;-71
2022/06/19 00:08:59;;;;;;;;;;;;;;;22.49;45.24;100840.44;1040834;28;705;-72
2022/06/19 00:09:49;;;;;;;;;;;;;;;22.46;44.98;100842.66;1038013;28;653;-71
2022/06/19 00:10:40;;;;;;;;;;;;;;;22.50;45.34;100836.69;1037779;28;630;-72
2022/06/19 00:11:30;;;;;;;;;;;;;;;22.44;45.30;100842.81;1037993;28;611;-72
2022/06/19 00:12:21;;;;;;;;;;;;;;;22.44;45.31;100842.81;1038403;28;620;-72
2022/06/19 00:13:11;;;;;;;;;;;;;;;22.47;45.09;100847.91;1041699;28;669;-72
2022/06/19 00:14:01;;;;;;;;;;;;;;;22.52;45.31;100850.94;1041025;28;650;-73
2022/06/19 00:14:52;;;;;;;;;;;;;;;22.50;44.96;100842.13;1037177;28;731;-72
2022/06/19 00:15:42;;;;;;;;;;;;;;;22.49;45.17;100840.44;1039998;28;1691;-72
2022/06/19 00:16:33;;;;;;;;;;;;;;;22.49;45.36;100848.59;1040314;28;749;-73
2022/06/19 00:17:23;;;;;;;;;;;;;;;22.51;45.68;100846.53;1047319;28;1567;-72
2022/06/19 00:18:14;;;;;;;;;;;;;;;22.47;44.87;100842.47;1041554;28;650;-73
2022/06/19 00:19:05;;;;;;;;;;;;;;;22.37;44.96;100849.16;1037270;28;598;-72
2022/06/19 00:19:55;;;;;;;;;;;;;;;22.23;44.83;100845.28;1041478;28;690;-73
2022/06/19 00:20:46;;;;;;;;;;;;;;;22.23;45.15;100841.72;1041087;28;677;-72
2022/06/19 00:21:36;;;;;;;;;;;;;;;22.23;44.41;100837.13;1037180;28;818;-72
2022/06/19 00:22:26;;;;;;;;;;;;;;;22.29;45.15;100841.88;1037151;28;690;-73
2022/06/19 00:23:17;;;;;;;;;;;;;;;22.25;44.78;100831.53;1037582;28;646;-74
2022/06/19 00:24:07;;;;;;;;;;;;;;;22.12;45.70;100829.38;1040832;28;689;-73
2022/06/19 00:24:58;;;;;;;;;;;;;;;22.03;43.36;100830.44;1037020;28;689;-73
2022/06/19 00:25:49;;;;;;;;;;;;;;;21.98;44.81;100827.38;1035392;28;718;-73
2022/06/19 00:26:39;;;;;;;;;;;;;;;22.03;45.74;100825.88;1037276;28;654;-74
2022/06/19 00:27:30;;;;;;;;;;;;;;;22.09;44.98;100829.72;1036720;28;627;-73
2022/06/19 00:28:20;;;;;;;;;;;;;;;22.15;44.83;100818.19;1037171;28;618;-73
2022/06/19 00:29:10;;;;;;;;;;;;;;;22.17;45.19;100825.13;1037012;28;1918;-73
2022/06/19 00:30:01;;;;;;;;;;;;;;;22.16;44.19;100825.31;1037109;28;646;-73
2022/06/19 00:30:51;;;;;;;;;;;;;;;22.14;44.36;100825.47;1037757;28;623;-73
2022/06/19 00:31:42;;;;;;;;;;;;;;;22.14;44.46;100838.19;1037703;28;741;-73
2022/06/19 00:32:32;;;;;;;;;;;;;;;22.06;44.38;100838.22;1037146;28;628;-73
2022/06/19 00:33:23;;;;;;;;;;;;;;;22.05;44.45;100826.50;1037231;28;697;-74
2022/06/19 00:34:13;;;;;;;;;;;;;;;22.08;45.15;100831.59;1037469;28;620;-73
2022/06/19 00:35:04;;;;;;;;;;;;;;;22.11;44.01;100831.25;1036231;28;673;-73
2022/06/19 00:35:54;;;;;;;;;;;;;;;22.12;44.41;100826.66;1040914;28;1428;-73
2022/06/19 00:36:49;;;;;;;;;;;;;;;22.03;44.38;100828.59;1041847;28;634;-73
2022/06/19 00:37:39;;;;;;;;;;;;;;;22.08;43.95;100823.44;1040579;28;697;-73
2022/06/19 00:38:29;;;;;;;;;;;;;;;22.14;44.60;100824.63;1039997;28;622;-73
2022/06/19 00:39:20;;;;;;;;;;;;;;;22.18;44.23;100834.13;1041398;28;787;-73
2022/06/19 00:40:10;;;;;;;;;;;;;;;22.23;44.13;100834.41;1041261;28;675;-73
2022/06/19 00:41:01;;;;;;;;;;;;;;;22.28;44.34;100845.59;1041873;28;716;-73
2022/06/19 00:41:51;;;;;;;;;;;;;;;22.33;44.63;100851.38;1041193;28;681;-73
2022/06/19 00:42:41;;;;;;;;;;;;;;;22.36;44.36;100866.47;1040208;28;654;-73
2022/06/19 00:43:32;;;;;;;;;;;;;;;22.40;45.06;100895.78;1040821;28;662;-73
2022/06/19 00:44:22;;;;;;;;;;;;;;;22.42;45.09;100907.31;1041700;28;755;-73
2022/06/19 00:45:13;;;;;;;;;;;;;;;22.44;44.73;100915.31;1040207;28;662;-73
2022/06/19 00:46:03;;;;;;;;;;;;;;;22.45;45.05;100945.00;1041772;28;658;-73
2022/06/19 00:46:54;;;;;;;;;;;;;;;22.44;44.99;100954.16;1039782;28;733;-73
2022/06/19 00:47:44;;;;;;;;;;;;;;;22.49;45.04;100962.66;1035050;28;729;-71
2022/06/19 00:48:36;;;;;;;;;;;;;;;22.49;44.66;100972.66;1039484;28;714;-72
2022/06/19 00:49:27;;;;;;;;;;;;;;;22.49;44.12;100984.38;1045250;28;1961;-73
2022/06/19 00:50:17;;;;;;;;;;;;;;;22.45;43.97;100985.75;1044099;28;694;-73
2022/06/19 00:51:09;;;;;;;;;;;;;;;22.42;43.97;100986.09;1041535;28;603;-73
2022/06/19 00:51:59;;;;;;;;;;;;;;;22.37;43.65;101006.66;1041414;28;630;-74
2022/06/19 00:52:50;;;;;;;;;;;;;;;22.35;43.78;101006.81;1040765;28;619;-73
2022/06/19 00:53:40;;;;;;;;;;;;;;;22.33;43.82;101008.84;1040629;28;662;-74
2022/06/19 00:54:31;;;;;;;;;;;;;;;22.32;43.86;101007.16;1041129;28;646;-75
2022/06/19 00:55:21;;;;;;;;;;;;;;;22.38;44.20;101009.19;1041213;28;615;-75
2022/06/19 00:56:12;;;;;;;;;;;;;;;22.37;44.15;101012.09;1036844;28;631;-74
2022/06/19 00:57:02;;;;;;;;;;;;;;;22.31;44.76;101010.91;1037022;28;639;-74
2022/06/19 00:57:53;;;;;;;;;;;;;;;22.32;44.73;101009.88;1039616;28;607;-75
2022/06/19 00:58:43;;;;;;;;;;;;;;;22.36;44.60;101000.38;1042071;28;678;-75
2022/06/19 00:59:33;;;;;;;;;;;;;;;22.40;44.33;100990.84;1040239;28;709;-75
2022/06/19 01:00:26;;;;;;;;;;;;;;;22.45;44.63;100979.47;1041251;28;615;-73
2022/06/19 01:01:17;;;;;;;;;;;;;;;22.47;44.38;100961.13;1040551;28;726;-75
2022/06/19 01:02:07;;;;;;;;;;;;;;;22.48;44.38;100943.81;1041017;28;623;-74
2022/06/19 01:02:58;;;;;;;;;;;;;;;22.44;43.93;100937.88;1040650;28;733;-75
2022/06/19 01:03:48;;;;;;;;;;;;;;;22.41;43.95;100931.94;1041215;28;634;-75
2022/06/19 01:04:38;;;;;;;;;;;;;;;22.38;43.97;100916.03;1041084;28;650;-75
2022/06/19 01:05:29;;;;;;;;;;;;;;;22.42;44.11;100906.47;1040127;28;1666;-74
2022/06/19 01:06:19;;;;;;;;;;;;;;;22.37;44.35;100903.47;1040680;28;607;-73
2022/06/19 01:07:10;;;;;;;;;;;;;;;22.32;43.96;100901.25;1040407;28;1569;-75
2022/06/19 01:08:00;;;;;;;;;;;;;;;22.34;44.78;100891.09;1041427;28;654;-74
2022/06/19 01:08:51;;;;;;;;;;;;;;;22.33;43.91;100885.81;1040675;28;729;-74
2022/06/19 01:09:41;;;;;;;;;;;;;;;22.34;44.39;100887.53;1041064;28;637;-74
2022/06/19 01:10:32;;;;;;;;;;;;;;;22.32;44.37;100884.13;1040674;28;669;-74
2022/06/19 01:11:22;;;;;;;;;;;;;;;22.37;45.14;100890.72;1040205;28;697;-75
2022/06/19 01:12:13;;;;;;;;;;;;;;;22.34;44.40;100876.66;1041379;28;650;-75
2022/06/19 01:13:03;;;;;;;;;;;;;;;22.31;44.29;100886.00;1037538;28;728;-75
2022/06/19 01:13:53;;;;;;;;;;;;;;;22.25;44.09;100878.53;1041560;28;638;-74
2022/06/19 01:14:44;;;;;;;;;;;;;;;22.26;43.89;100873.94;1040884;28;689;-75
2022/06/19 01:15:34;;;;;;;;;;;;;;;22.18;43.92;100866.69;1033490;28;667;-75
2022/06/19 01:16:25;;;;;;;;;;;;;;;22.19;44.11;100865.69;1036435;28;689;-74
2022/06/19 01:17:15;;;;;;;;;;;;;;;22.21;44.60;100863.66;1033811;28;649;-74
2022/06/19 01:18:06;;;;;;;;;;;;;;;22.19;44.28;100857.53;1037231;28;707;-74
2022/06/19 01:18:56;;;;;;;;;;;;;;;22.13;44.37;100850.09;1037372;28;780;-74
2022/06/19 01:19:47;;;;;;;;;;;;;;;22.13;45.04;100855.50;1037646;28;730;-74
2022/06/19 01:20:37;;;;;;;;;;;;;;;22.11;45.03;100860.25;1041400;28;964;-74
2022/06/19 01:21:28;;;;;;;;;;;;;;;22.02;44.66;100864.88;1041675;28;646;-75
2022/06/19 01:22:18;;;;;;;;;;;;;;;22.01;44.82;100865.06;1037117;28;697;-75
2022/06/19 01:23:09;;;;;;;;;;;;;;;22.03;45.20;100874.72;1037590;28;662;-75
2022/06/19 01:23:59;;;;;;;;;;;;;;;22.08;45.24;100882.31;1040938;28;604;-75
2022/06/19 01:24:49;;;;;;;;;;;;;;;22.12;45.62;100900.81;1041331;28;678;-73
2022/06/19 01:25:40;;;;;;;;;;;;;;;22.19;44.83;100897.41;1037516;28;689;-72
2022/06/19 01:26:31;;;;;;;;;;;;;;;22.23;45.00;100912.31;1037027;28;681;-72
2022/06/19 01:28:45;;;;;;;;;;;;;;;22.25;44.40;100905.69;1036901;28;634;-73
2022/06/19 01:29:36;;;;;;;;;;;;;;;22.24;44.66;100901.28;1036566;28;701;-72
2022/06/19 01:30:26;;;;;;;;;;;;;;;22.25;44.85;100911.13;1036685;28;618;-74
2022/06/19 01:31:17;;;;;;;;;;;;;;;22.28;44.77;100912.63;1037463;28;724;-73
2022/06/19 01:32:07;;;;;;;;;;;;;;;22.32;45.39;100917.56;1041375;28;638;-72
2022/06/19 01:32:58;;;;;;;;;;;;;;;22.33;45.08;100924.69;1040794;28;681;-72
2022/06/19 01:33:48;;;;;;;;;;;;;;;22.29;45.51;100917.91;1037155;28;658;-73
2022/06/19 01:34:39;;;;;;;;;;;;;;;22.34;45.45;100920.94;1036922;28;653;-73
2022/06/19 01:35:29;;;;;;;;;;;;;;;22.37;45.37;100923.31;1037024;28;703;-73
2022/06/19 01:36:20;;;;;;;;;;;;;;;22.38;45.34;100929.59;1036984;28;640;-72
2022/06/19 01:37:10;;;;;;;;;;;;;;;22.35;45.45;100933.50;1040469;28;1651;-73
2022/06/19 01:38:01;;;;;;;;;;;;;;;22.37;45.31;100933.34;1041580;28;800;-73
2022/06/19 01:38:51;;;;;;;;;;;;;;;22.36;45.66;100935.19;1041567;28;777;-72
2022/06/19 01:39:42;;;;;;;;;;;;;;;22.37;45.46;100936.06;1041558;28;638;-72
2022/06/19 01:40:32;;;;;;;;;;;;;;;22.37;45.71;100930.63;1041586;28;594;-72
2022/06/19 01:41:23;;;;;;;;;;;;;;;22.34;45.69;100937.25;1041005;28;658;-73
2022/06/19 01:42:13;;;;;;;;;;;;;;;22.33;45.80;100924.69;1040984;28;697;-72
2022/06/19 01:43:05;;;;;;;;;;;;;;;22.26;46.43;100931.81;1041031;28;661;-73
2022/06/19 01:43:56;;;;;;;;;;;;;;;22.25;45.67;100924.69;1041589;28;740;-73
2022/06/19 01:44:46;;;;;;;;;;;;;;;22.26;45.50;100920.09;1040955;28;634;-73
2022/06/19 01:45:36;;;;;;;;;;;;;;;22.20;46.26;100918.97;1041040;28;611;-73
2022/06/19 01:46:27;;;;;;;;;;;;;;;22.23;45.92;100924.00;1041591;28;618;-72
2022/06/19 01:47:17;;;;;;;;;;;;;;;22.17;45.98;100922.84;1039423;28;633;-73
2022/06/19 01:48:08;;;;;;;;;;;;;;;22.20;45.37;100921.66;1040827;28;753;-72
2022/06/19 01:48:58;;;;;;;;;;;;;;;22.18;45.80;100910.13;1035888;28;699;-73
2022/06/19 01:49:49;;;;;;;;;;;;;;;22.14;46.12;100915.06;1037223;28;641;-73
2022/06/19 01:50:39;;;;;;;;;;;;;;;22.14;45.10;100920.47;1040910;28;1785;-72
2022/06/19 01:51:30;;;;;;;;;;;;;;;22.14;45.42;100930.50;1040942;28;693;-72
2022/06/19 01:52:20;;;;;;;;;;;;;;;22.15;45.31;100926.75;1040283;28;693;-72
2022/06/19 01:53:10;;;;;;;;;;;;;;;22.16;45.48;100932.03;1040272;28;599;-73
2022/06/19 01:54:01;;;;;;;;;;;;;;;22.15;44.73;100921.34;1041707;28;704;-72
2022/06/19 01:54:51;;;;;;;;;;;;;;;22.13;45.42;100926.94;1040115;28;661;-72
2022/06/19 01:55:42;;;;;;;;;;;;;;;22.16;45.48;100928.47;1037261;28;702;-71
2022/06/19 01:56:32;;;;;;;;;;;;;;;22.16;45.45;100928.47;1041335;28;634;-72
2022/06/19 01:57:23;;;;;;;;;;;;;;;22.18;45.56;100910.13;1042345;28;672;-72
2022/06/19 01:58:13;;;;;;;;;;;;;;;22.16;45.27;100912.16;1037284;28;693;-71
2022/06/19 01:59:04;;;;;;;;;;;;;;;22.17;44.92;100916.59;1037425;28;642;-71
2022/06/19 01:59:54;;;;;;;;;;;;;;;22.20;45.50;100912.69;1033487;28;622;-71
2022/06/19 02:00:47;;;;;;;;;;;;;;;22.19;45.20;100917.25;1035806;28;701;-71
2022/06/19 02:01:38;;;;;;;;;;;;;;;22.14;45.61;100906.91;1036864;28;635;-71
2022/06/19 02:02:32;;;;;;;;;;;;;;;22.18;45.02;100912.84;1037448;28;650;-71
2022/06/19 02:03:23;;;;;;;;;;;;;;;22.20;44.94;100907.25;1037548;28;627;-71
2022/06/19 02:04:13;;;;;;;;;;;;;;;22.12;44.90;100899.97;1041248;28;701;-71
2022/06/19 02:05:03;;;;;;;;;;;;;;;22.14;45.28;100897.91;1041409;28;1635;-70
2022/06/19 02:05:54;;;;;;;;;;;;;;;22.16;44.69;100882.31;1036890;28;631;-70
2022/06/19 02:06:44;;;;;;;;;;;;;;;22.14;45.31;100895.22;1039185;28;678;-72
2022/06/19 02:07:35;;;;;;;;;;;;;;;22.13;43.87;100880.78;1043473;28;693;-70
2022/06/19 02:08:25;;;;;;;;;;;;;;;22.05;44.07;100875.38;1044405;28;689;-72
2022/06/19 02:09:16;;;;;;;;;;;;;;;22.02;44.31;100881.16;1044504;28;1890;-73
2022/06/19 02:10:06;;;;;;;;;;;;;;;21.95;43.68;100876.56;1045616;28;641;-73
2022/06/19 02:10:57;;;;;;;;;;;;;;;21.94;43.55;100873.00;1045036;28;602;-72
2022/06/19 02:11:47;;;;;;;;;;;;;;;21.97;44.05;100877.22;1044541;28;869;-72
2022/06/19 02:12:37;;;;;;;;;;;;;;;21.92;44.52;100872.31;1044554;28;583;-72
2022/06/19 02:13:30;;;;;;;;;;;;;;;21.92;44.45;100877.75;1043505;28;1635;-71
2022/06/19 02:14:20;;;;;;;;;;;;;;;21.87;43.64;100874.69;1040840;28;646;-71
2022/06/19 02:15:11;;;;;;;;;;;;;;;21.89;44.54;100869.94;1040096;28;642;-71
2022/06/19 02:16:01;;;;;;;;;;;;;;;21.92;44.50;100871.47;1041297;28;575;-71
2022/06/19 02:16:52;;;;;;;;;;;;;;;21.93;44.46;100875.88;1040140;28;690;-71
2022/06/19 02:17:42;;;;;;;;;;;;;;;21.95;44.45;100892.84;1038240;28;1859;-71
2022/06/19 02:18:33;;;;;;;;;;;;;;;21.97;44.87;100896.22;1040837;28;694;-72
2022/06/19 02:19:23;;;;;;;;;;;;;;;21.97;44.31;100909.78;1040882;28;721;-72
2022/06/19 02:20:14;;;;;;;;;;;;;;;21.90;44.00;100938.63;1040973;28;685;-72
2022/06/19 02:21:04;;;;;;;;;;;;;;;21.85;44.46;100962.72;1043972;28;654;-71
2022/06/19 02:21:55;;;;;;;;;;;;;;;21.87;44.23;100975.09;1040747;28;681;-71
2022/06/19 02:22:45;;;;;;;;;;;;;;;21.94;44.16;100994.25;1039977;28;618;-71
2022/06/19 02:23:36;;;;;;;;;;;;;;;21.95;44.77;101004.94;1044174;28;725;-71
2022/06/19 02:24:26;;;;;;;;;;;;;;;22.03;44.59;101020.44;1045288;28;649;-71
2022/06/19 02:25:17;;;;;;;;;;;;;;;22.05;45.14;101010.22;1041291;28;735;-71
2022/06/19 02:26:07;;;;;;;;;;;;;;;22.04;45.30;101027.53;1037200;28;634;-72
2022/06/19 02:26:58;;;;;;;;;;;;;;;22.02;45.52;101014.16;1040581;28;705;-72
2022/06/19 02:27:48;;;;;;;;;;;;;;;22.01;45.44;101000.75;1040988;28;713;-72
2022/06/19 02:28:38;;;;;;;;;;;;;;;21.99;45.44;100978.31;1040932;28;669;-72
2022/06/19 02:29:29;;;;;;;;;;;;;;;22.02;45.20;100967.16;1044149;28;1910;-72
2022/06/19 02:30:19;;;;;;;;;;;;;;;22.00;44.93;100951.03;1044781;28;642;-72
2022/06/19 02:31:10;;;;;;;;;;;;;;;21.99;45.49;100943.03;1041136;28;728;-73
2022/06/19 02:32:00;;;;;;;;;;;;;;;21.99;45.36;100932.19;1041538;28;696;-73
2022/06/19 02:32:51;;;;;;;;;;;;;;;21.94;45.37;100908.28;1044195;28;610;-73
2022/06/19 02:33:41;;;;;;;;;;;;;;;21.80;45.35;100900.84;1046114;28;710;-72
2022/06/19 02:34:31;;;;;;;;;;;;;;;21.78;45.68;100892.00;1040160;28;673;-72
2022/06/19 02:35:22;;;;;;;;;;;;;;;21.76;45.76;100889.47;1037107;28;657;-73
2022/06/19 02:36:12;;;;;;;;;;;;;;;21.78;46.30;100873.88;1044828;28;646;-72
2022/06/19 02:37:03;;;;;;;;;;;;;;;21.81;46.07;100859.97;1040625;28;661;-72
2022/06/19 02:37:53;;;;;;;;;;;;;;;21.81;46.19;100851.81;1037050;28;571;-73
2022/06/19 02:38:44;;;;;;;;;;;;;;;21.74;46.35;100845.38;1038068;28;650;-72
2022/06/19 02:39:34;;;;;;;;;;;;;;;21.69;46.67;100828.75;1041501;28;759;-72
2022/06/19 02:40:25;;;;;;;;;;;;;;;21.57;46.61;100824.72;1040426;28;575;-72
2022/06/19 02:41:15;;;;;;;;;;;;;;;21.51;47.06;100813.72;1040395;28;658;-72
2022/06/19 02:42:05;;;;;;;;;;;;;;;21.59;47.08;100822.69;1040227;28;662;-72
2022/06/19 02:42:56;;;;;;;;;;;;;;;21.48;47.04;100825.78;1041084;28;682;-72
2022/06/19 02:43:46;;;;;;;;;;;;;;;21.52;47.04;100834.38;1041083;28;655;-73
2022/06/19 02:44:37;;;;;;;;;;;;;;;21.57;46.83;100859.97;1042691;28;609;-72
2022/06/19 02:45:27;;;;;;;;;;;;;;;21.55;47.49;100866.59;1042189;28;697;-72
2022/06/19 02:46:18;;;;;;;;;;;;;;;21.62;47.01;100906.44;1041016;28;674;-72
2022/06/19 02:47:08;;;;;;;;;;;;;;;21.65;47.36;100941.38;1041046;28;663;-72
2022/06/19 02:47:59;;;;;;;;;;;;;;;21.76;47.04;100980.84;1042199;28;589;-72
2022/06/19 02:48:50;;;;;;;;;;;;;;;21.85;46.74;101038.69;1041224;28;627;-71
2022/06/19 02:49:40;;;;;;;;;;;;;;;21.88;46.91;101087.19;1042115;28;670;-71
2022/06/19 02:50:31;;;;;;;;;;;;;;;21.92;46.90;101124.69;1042782;28;1126;-71
2022/06/19 02:51:21;;;;;;;;;;;;;;;21.88;47.05;101150.44;1045695;28;697;-71
2022/06/19 02:52:12;;;;;;;;;;;;;;;21.79;47.31;101157.72;1041296;28;655;-71
2022/06/19 02:53:02;;;;;;;;;;;;;;;21.74;47.51;101151.94;1041294;28;705;-71
2022/06/19 02:53:52;;;;;;;;;;;;;;;21.75;47.71;101122.94;1045505;28;646;-70
2022/06/19 02:54:43;;;;;;;;;;;;;;;21.71;47.54;101089.84;1040985;28;1879;-71
2022/06/19 02:55:33;;;;;;;;;;;;;;;21.67;47.93;101044.28;1040616;28;677;-71
2022/06/19 02:56:24;;;;;;;;;;;;;;;21.70;47.79;101012.22;1045201;28;725;-71
2022/06/19 02:57:14;;;;;;;;;;;;;;;21.73;47.95;100992.88;1036779;28;689;-71
2022/06/19 02:58:05;;;;;;;;;;;;;;;21.67;47.61;100981.88;1037691;28;634;-70
2022/06/19 02:58:55;;;;;;;;;;;;;;;21.70;47.75;100992.38;1041618;28;682;-70
2022/06/19 02:59:45;;;;;;;;;;;;;;;21.75;47.58;100998.16;1037156;28;662;-70
2022/06/19 03:00:36;;;;;;;;;;;;;;;21.78;47.78;101017.66;1037327;28;670;-71
2022/06/19 03:01:26;;;;;;;;;;;;;;;21.83;47.86;101012.59;1041430;28;678;-70
2022/06/19 03:02:17;;;;;;;;;;;;;;;21.87;47.83;100983.22;1042070;28;630;-72
2022/06/19 03:03:07;;;;;;;;;;;;;;;21.93;47.51;100946.44;1042164;28;626;-71
2022/06/19 03:03:58;;;;;;;;;;;;;;;21.94;47.76;100923.69;1043691;28;642;-71
2022/06/19 03:04:48;;;;;;;;;;;;;;;21.92;47.86;100895.88;1045966;28;1612;-71
2022/06/19 03:05:38;;;;;;;;;;;;;;;21.80;48.21;100876.41;1045656;28;628;-71
2022/06/19 03:06:29;;;;;;;;;;;;;;;21.77;47.88;100864.03;1045745;28;741;-71
2022/06/19 03:07:19;;;;;;;;;;;;;;;21.72;48.18;100860.97;1045107;28;650;-72
2022/06/19 03:08:10;;;;;;;;;;;;;;;21.71;48.22;100862.00;1045064;28;670;-71
2022/06/19 03:09:00;;;;;;;;;;;;;;;21.68;48.30;100859.63;1045143;28;627;-72
2022/06/19 03:09:51;;;;;;;;;;;;;;;21.57;48.46;100846.41;1045041;28;638;-72
2022/06/19 03:10:41;;;;;;;;;;;;;;;21.51;48.37;100854.38;1045211;28;658;-71
2022/06/19 03:11:32;;;;;;;;;;;;;;;21.46;48.77;100854.91;1045043;28;712;-71
2022/06/19 03:12:22;;;;;;;;;;;;;;;21.50;48.76;100853.53;1046203;28;732;-71
2022/06/19 03:13:13;;;;;;;;;;;;;;;21.49;48.84;100849.16;1045234;28;743;-71
2022/06/19 03:14:03;;;;;;;;;;;;;;;21.54;48.55;100841.34;1045613;28;705;-71
2022/06/19 03:14:54;;;;;;;;;;;;;;;21.59;48.37;100832.69;1045575;28;602;-71
2022/06/19 03:15:44;;;;;;;;;;;;;;;21.53;48.94;100827.94;1045594;28;765;-72
2022/06/19 03:16:34;;;;;;;;;;;;;;;21.46;48.58;100811.53;1045617;28;636;-74
2022/06/19 03:17:25;;;;;;;;;;;;;;;21.36;48.64;100786.44;1045637;28;602;-72
2022/06/19 03:18:15;;;;;;;;;;;;;;;21.26;49.18;100775.78;1041937;28;680;-72
2022/06/19 03:19:06;;;;;;;;;;;;;;;21.22;49.13;100765.44;1041698;28;641;-72
2022/06/19 03:19:56;;;;;;;;;;;;;;;21.27;49.10;100747.66;1037405;28;653;-71
2022/06/19 03:20:47;;;;;;;;;;;;;;;21.28;48.80;100752.06;1041777;28;654;-72
2022/06/19 03:21:37;;;;;;;;;;;;;;;21.25;48.72;100730.72;1040206;28;642;-71
2022/06/19 03:22:28;;;;;;;;;;;;;;;21.10;48.38;100713.44;1040106;28;614;-72
2022/06/19 03:23:18;;;;;;;;;;;;;;;21.00;48.88;100697.34;1037391;28;706;-70
2022/06/19 03:24:08;;;;;;;;;;;;;;;20.99;48.76;100684.81;1041305;28;650;-71
2022/06/19 03:25:00;;;;;;;;;;;;;;;20.81;48.43;100648.94;1040600;28;732;-71
2022/06/19 03:25:51;;;;;;;;;;;;;;;20.61;48.15;100648.44;1041287;28;677;-72
2022/06/19 03:26:41;;;;;;;;;;;;;;;20.40;49.08;100624.59;1041479;28;697;-71
2022/06/19 03:27:32;;;;;;;;;;;;;;;20.26;48.65;100627.06;1041530;28;626;-71
2022/06/19 03:28:22;;;;;;;;;;;;;;;20.24;49.18;100619.13;1041982;28;635;-71
2022/06/19 03:29:12;;;;;;;;;;;;;;;20.27;49.47;100618.78;1041924;28;1906;-71
2022/06/19 03:30:03;;;;;;;;;;;;;;;20.28;49.74;100614.22;1042006;28;705;-72
2022/06/19 03:30:56;;;;;;;;;;;;;;;20.34;48.82;100624.38;1041466;28;702;-71
2022/06/19 03:31:47;;;;;;;;;;;;;;;20.49;49.23;100627.28;1042034;28;622;-71
2022/06/19 03:32:37;;;;;;;;;;;;;;;20.60;48.92;100621.56;1041979;28;704;-71
2022/06/19 03:33:27;;;;;;;;;;;;;;;20.66;49.12;100620.84;1041987;28;658;-71
2022/06/19 03:34:18;;;;;;;;;;;;;;;20.68;48.91;100611.53;1041616;28;650;-71
2022/06/19 03:35:08;;;;;;;;;;;;;;;20.58;48.93;100621.72;1039536;28;1590;-71
2022/06/19 03:35:59;;;;;;;;;;;;;;;20.44;49.33;100620.50;1041580;28;645;-70
2022/06/19 03:36:49;;;;;;;;;;;;;;;20.29;49.37;100627.59;1039859;28;1632;-70
2022/06/19 03:37:40;;;;;;;;;;;;;;;20.27;49.38;100620.63;1041191;28;673;-71
2022/06/19 03:38:30;;;;;;;;;;;;;;;20.21;49.88;100629.44;1041212;28;701;-70
2022/06/19 03:39:21;;;;;;;;;;;;;;;20.17;49.43;100612.69;1041310;28;598;-71
2022/06/19 03:40:11;;;;;;;;;;;;;;;20.09;49.46;100618.94;1041935;28;710;-71
2022/06/19 03:41:01;;;;;;;;;;;;;;;20.01;49.56;100608.09;1041996;28;641;-71
2022/06/19 03:41:52;;;;;;;;;;;;;;;19.93;49.78;100594.56;1042102;28;678;-71
2022/06/19 03:42:42;;;;;;;;;;;;;;;19.94;48.97;100590.84;1041427;28;669;-71
2022/06/19 03:43:33;;;;;;;;;;;;;;;19.85;48.90;100607.22;1042000;28;567;-71
2022/06/19 03:44:24;;;;;;;;;;;;;;;19.79;49.28;100616.00;1040524;28;673;-71
2022/06/19 03:45:14;;;;;;;;;;;;;;;19.76;50.24;100620.72;1037261;28;1550;-71
2022/06/19 03:46:12;;;;;;;;;;;;;;;19.89;49.34;100627.50;1037216;28;638;-72
2022/06/19 03:47:02;;;;;;;;;;;;;;;19.97;49.36;100627.53;1037322;28;654;-71
2022/06/19 03:47:53;;;;;;;;;;;;;;;20.06;49.71;100634.66;1037796;28;697;-72
2022/06/19 03:48:43;;;;;;;;;;;;;;;20.28;48.44;100630.44;1037925;28;622;-71
2022/06/19 03:49:34;;;;;;;;;;;;;;;20.39;49.17;100643.72;1037866;28;1973;-71
2022/06/19 03:50:24;;;;;;;;;;;;;;;20.56;48.94;100660.81;1041011;28;650;-72
2022/06/19 03:51:17;;;;;;;;;;;;;;;20.63;48.62;100672.63;1041697;28;810;-71
2022/06/19 03:52:08;;;;;;;;;;;;;;;20.73;48.62;100686.88;1034250;28;748;-71
2022/06/19 03:52:58;;;;;;;;;;;;;;;20.78;48.68;100689.94;1041545;28;693;-71
2022/06/19 03:53:49;;;;;;;;;;;;;;;20.85;48.47;100699.03;1041206;28;666;-72
2022/06/19 03:54:39;;;;;;;;;;;;;;;20.92;48.27;100700.06;1048027;28;791;-71
2022/06/19 03:55:30;;;;;;;;;;;;;;;20.99;48.32;100695.66;1048313;28;634;-71
2022/06/19 03:56:20;;;;;;;;;;;;;;;21.09;47.77;100700.91;1040545;28;653;-71
2022/06/19 03:57:11;;;;;;;;;;;;;;;21.02;48.05;100694.47;1040835;28;697;-71
2022/06/19 03:58:01;;;;;;;;;;;;;;;20.91;47.42;100692.13;1048673;28;681;-71
2022/06/19 03:58:51;;;;;;;;;;;;;;;20.77;47.63;100693.66;1048175;28;705;-71
2022/06/19 03:59:42;;;;;;;;;;;;;;;20.60;48.27;100690.06;1040465;28;792;-71
2022/06/19 04:00:32;;;;;;;;;;;;;;;20.54;47.92;100690.75;1041169;28;769;-71
2022/06/19 04:01:23;;;;;;;;;;;;;;;20.56;47.92;100696.84;1040352;28;732;-71
2022/06/19 04:02:13;;;;;;;;;;;;;;;20.61;48.24;100696.31;1039954;28;705;-71
2022/06/19 04:03:04;;;;;;;;;;;;;;;20.76;48.35;100700.09;1041297;28;716;-72
2022/06/19 04:03:54;;;;;;;;;;;;;;;20.88;47.97;100690.59;1040309;28;682;-71
2022/06/19 04:04:45;;;;;;;;;;;;;;;20.84;47.57;100689.22;1041160;28;1707;-71
2022/06/19 04:05:36;;;;;;;;;;;;;;;20.69;46.99;100688.22;1032990;28;686;-71
2022/06/19 04:06:26;;;;;;;;;;;;;;;20.73;47.77;100695.84;1032874;28;611;-73
2022/06/19 04:07:16;;;;;;;;;;;;;;;20.71;47.26;100694.31;1040677;28;598;-72
2022/06/19 04:08:07;;;;;;;;;;;;;;;20.68;47.35;100700.06;1038353;28;1840;-72
2022/06/19 04:08:57;;;;;;;;;;;;;;;20.70;47.61;100706.16;1036910;28;697;-71
2022/06/19 04:09:48;;;;;;;;;;;;;;;20.69;46.94;100707.19;1045142;28;603;-71
2022/06/19 04:10:39;;;;;;;;;;;;;;;20.74;47.84;100707.53;1043897;28;634;-72
2022/06/19 04:11:29;;;;;;;;;;;;;;;20.84;47.49;100691.94;1040497;28;674;-72
2022/06/19 04:12:20;;;;;;;;;;;;;;;20.96;47.57;100687.03;1036970;28;646;-72
2022/06/19 04:13:10;;;;;;;;;;;;;;;20.87;47.16;100675.34;1041358;28;1872;-72
2022/06/19 04:14:00;;;;;;;;;;;;;;;20.88;47.09;100662.66;1042444;28;932;-72
2022/06/19 04:14:52;;;;;;;;;;;;;;;20.83;46.99;100663.16;1040805;28;686;-72
2022/06/19 04:15:42;;;;;;;;;;;;;;;20.83;47.25;100652.31;1040287;28;698;-72
2022/06/19 04:16:33;;;;;;;;;;;;;;;20.87;47.32;100652.84;1041229;28;638;-72
2022/06/19 04:17:23;;;;;;;;;;;;;;;20.90;47.01;100647.06;1048266;28;665;-72
2022/06/19 04:18:13;;;;;;;;;;;;;;;20.88;47.05;100644.53;1047980;28;614;-72
2022/06/19 04:19:04;;;;;;;;;;;;;;;20.92;47.81;100635.06;1040528;28;649;-72
2022/06/19 04:19:54;;;;;;;;;;;;;;;21.02;47.55;100637.56;1039972;28;788;-72
2022/06/19 04:20:45;;;;;;;;;;;;;;;21.08;47.70;100640.44;1041360;28;642;-72
2022/06/19 04:21:35;;;;;;;;;;;;;;;21.09;47.32;100634.00;1041006;28;717;-72
2022/06/19 04:22:26;;;;;;;;;;;;;;;21.02;47.23;100627.56;1041164;28;670;-71
2022/06/19 04:23:16;;;;;;;;;;;;;;;20.92;47.38;100616.09;1037266;28;685;-72
2022/06/19 04:24:07;;;;;;;;;;;;;;;20.88;47.37;100609.31;1037673;28;718;-72
2022/06/19 04:24:58;;;;;;;;;;;;;;;20.84;47.41;100594.44;1037173;28;616;-72
2022/06/19 04:25:48;;;;;;;;;;;;;;;20.82;47.90;100573.94;1038269;28;646;-71
2022/06/19 04:26:39;;;;;;;;;;;;;;;20.76;47.44;100553.84;1038684;28;1828;-72
2022/06/19 04:27:29;;;;;;;;;;;;;;;20.72;47.67;100538.94;1042408;28;638;-72